Flight Track Log - Related Links

Times and Time Zones

All times are in EDT time to prevent confusion due to time zone crossing. See the UPS1337 flight status page for this flight to view local times or setup timezone preferences in your user account.

Time Position Orientation Groundspeed Altitude Reporting Facility
EDT Latitude Longitude Course Direction KTS MPH feet Rate Location/Type
Fri 09:43:41 PM 27.9167 -82.6833 360° North 166 191 800  Level Tampa TRACON
Fri 09:44:35 PM 27.9667 -82.6833 360° North 229 264 3,200 1,684 Climbing Tampa TRACON
Fri 09:45:35 PM 28.0333 -82.6500 24° Northeast 245 282 4,000 2,574 Climbing Tampa TRACON
Fri 09:51:16 PM 28.5675 -82.6604 354° North 420 483 20,400 2,838 Climbing FlightAware ADS-B
Fri 09:52:04 PM 28.6631 -82.6653 360° North 430 495 22,400 2,524 Climbing FlightAware ADS-B
Fri 09:53:22 PM 28.8226 -82.6677 359° North 454 522 25,700 2,095 Climbing FlightAware ADS-B
Fri 09:54:10 PM 28.9264 -82.6690 359° North 464 534 26,800 1,335 Climbing FlightAware ADS-B
Fri 10:00:20 PM 29.6366 -82.6769 359° North 448 516 35,000 1,200 Climbing FlightAware ADS-B
Fri 10:01:00 PM 29.7542 -82.6782 359° North 446 513 35,000  Level FlightAware ADS-B
Fri 10:01:39 PM 29.8524 -82.6794 360° North 446 513 35,000  Level FlightAware ADS-B
Fri 10:02:18 PM 29.9418 -82.6805 359° North 447 514 35,000  Level FlightAware ADS-B
Fri 10:02:59 PM 30.0197 -82.6814 360° North 447 514 35,000  Level FlightAware ADS-B
Fri 10:03:39 PM 30.1082 -82.6824 360° North 448 516 35,000  Level FlightAware ADS-B
Fri 10:04:20 PM 30.1931 -82.6833 360° North 448 516 35,000  Level FlightAware ADS-B
Fri 10:05:01 PM 30.2782 -82.6843 360° North 445 512 35,000  Level FlightAware ADS-B
Fri 10:05:40 PM 30.3577 -82.6852 360° North 440 506 35,000  Level FlightAware ADS-B
Fri 10:06:01 PM 30.4011 -82.6855 North 438 504 35,000  Level FlightAware ADS-B
Fri 10:08:09 PM 30.6540 -82.6187 22° Northeast 467 537 35,000  Level FlightAware ADS-B
Fri 10:09:11 PM 30.7756 -82.5661 22° Northeast 443 510 35,000 -49 Level Jacksonville Center
Fri 10:10:11 PM 30.8944 -82.5078 23° Northeast 454 522 34,900 -50 Descending Jacksonville Center
Fri 10:11:11 PM 31.0133 -82.4514 22° Northeast 454 522 34,900 50 Level Jacksonville Center
Fri 10:12:11 PM 31.1342 -82.3925 23° Northeast 454 522 35,000 50 Climbing Jacksonville Center
Fri 10:13:11 PM 31.2550 -82.3361 22° Northeast 459 528 35,000  Level Jacksonville Center
Fri 10:14:11 PM 31.3778 -82.2794 22° Northeast 464 534 35,000  Level Jacksonville Center
Fri 10:15:11 PM 31.4986 -82.2225 22° Northeast 464 534 35,000  Level Jacksonville Center
Fri 10:16:11 PM 31.6194 -82.1631 23° Northeast 469 540 35,000  Level Jacksonville Center
Fri 10:17:11 PM 31.7278 -82.1086 23° Northeast 469 540 35,000  Level Jacksonville Center
Fri 10:18:11 PM 31.8631 -82.0436 22° Northeast 474 545 35,000  Level Jacksonville Center
Fri 10:19:11 PM 31.9878 -81.9839 22° Northeast 474 545 35,000  Level Jacksonville Center
Fri 10:20:10 PM 32.0961 -81.9311 22° Northeast 474 545 35,000  Level Jacksonville Center
Fri 10:21:10 PM 32.2292 -81.8683 22° Northeast 474 545 35,000  Level Jacksonville Center
Fri 10:22:11 PM 32.3519 -81.8081 23° Northeast 468 539 35,000  Level Jacksonville Center
Fri 10:23:11 PM 32.4600 -81.7550 23° Northeast 473 544 35,000  Level Jacksonville Center
Fri 10:24:11 PM 32.5931 -81.6892 23° Northeast 473 544 35,000  Level Jacksonville Center
Fri 10:25:11 PM 32.7031 -81.6336 23° Northeast 473 544 35,000 -250 Level Jacksonville Center
Fri 10:26:11 PM 32.8214 -81.5750 23° Northeast 473 544 34,500 -756 Descending Jacksonville Center
Fri 10:27:10 PM 32.9439 -81.5164 22° Northeast 473 544 33,500 -304 Descending Jacksonville Center
Fri 10:33:05 PM 33.6037 -81.0269 34° Northeast 460 529 32,400 -247 Descending FlightAware ADS-B
Fri 10:33:39 PM 33.6644 -80.9782 34° Northeast 455 524 31,900 -935 Descending FlightAware ADS-B
Fri 10:34:22 PM 33.7389 -80.9181 34° Northeast 450 518 31,200 -730 Descending FlightAware ADS-B
Fri 10:34:53 PM 33.7920 -80.8750 34° Northeast 453 521 31,000 -190 Descending FlightAware ADS-B
Fri 10:35:25 PM 33.8473 -80.8304 34° Northeast 457 526 31,000  Level FlightAware ADS-B
Fri 10:36:09 PM 33.9260 -80.7666 34° Northeast 462 532 31,000  Level FlightAware ADS-B
Fri 10:36:39 PM 33.9774 -80.7249 34° Northeast 466 536 31,000  Level FlightAware ADS-B
Fri 10:37:09 PM 34.0332 -80.6794 34° Northeast 466 536 31,000  Level FlightAware ADS-B
Fri 10:37:42 PM 34.0883 -80.6343 34° Northeast 467 537 31,000  Level FlightAware ADS-B
Fri 10:38:25 PM 34.1675 -80.5696 34° Northeast 464 534 31,000  Level FlightAware ADS-B
Fri 10:39:00 PM 34.2291 -80.5193 34° Northeast 463 533 31,000 -366 Level FlightAware ADS-B
Fri 10:39:47 PM 34.3124 -80.4513 34° Northeast 465 535 30,500 -835 Descending FlightAware ADS-B
Fri 10:40:19 PM 34.3714 -80.4028 34° Northeast 467 537 29,900 -938 Descending FlightAware ADS-B
Fri 10:40:51 PM 34.4273 -80.3568 34° Northeast 464 534 29,500 -1,273 Descending FlightAware ADS-B
Fri 10:41:25 PM 34.4881 -80.3065 35° Northeast 457 526 28,500 -2,113 Descending FlightAware ADS-B
Fri 10:42:02 PM 34.5516 -80.2541 34° Northeast 449 517 27,000 -2,242 Descending FlightAware ADS-B
Fri 10:43:04 PM 34.6367 -80.1844 34° Northeast 451 519 24,800 -1,967 Descending Washington Center
Fri 10:44:04 PM 34.7392 -80.0992 34° Northeast 451 519 23,000 -893 Descending Washington Center
Fri 10:45:05 PM 34.8436 -79.9953 39° Northeast 451 519 23,000  Level Washington Center
Fri 10:46:06 PM 34.9383 -79.8922 42° Northeast 454 522 23,000  Level Washington Center
Fri 10:47:10 PM 35.0336 -79.7886 42° Northeast 457 526 23,000 -484 Level Washington Center
Fri 10:48:10 PM 35.1347 -79.6958 37° Northeast 455 524 22,000 -2,927 Descending Washington Center
Fri 10:49:13 PM 35.2539 -79.5925 35° Northeast 442 509 17,000 -4,692 Descending Washington Center
Fri 10:49:28 PM 35.2769 -79.5719 36° Northeast 411 473 15,900 -3,763 Descending Washington Center
Fri 10:50:12 PM 35.3461 -79.5133 35° Northeast 408 470 13,300 -3,333 Descending Washington Center
Fri 10:50:40 PM 35.3864 -79.4794 34° Northeast 383 441 11,900 -1,938 Descending Washington Center
Fri 10:51:17 PM 35.4300 -79.4400 36° Northeast 374 430 11,200 -787 Descending Washington Center
Fri 10:51:41 PM 35.4639 -79.4131 33° Northeast 300 345 11,100 -197 Descending Washington Center
Fri 10:52:18 PM 35.5069 -79.3814 31° Northeast 304 350 11,000 -90 Descending Washington Center
Fri 10:52:48 PM 35.5333 -79.3403 52° Northeast 310 357 11,000  Level Washington Center
Fri 10:53:18 PM 35.5589 -79.2983 53° Northeast 309 356 11,000  Level Washington Center
Fri 10:53:42 PM 35.5803 -79.2619 54° Northeast 310 357 11,000 -677 Level Washington Center
Fri 10:54:20 PM 35.6133 -79.2075 53° Northeast 310 357 10,300 -1,424 Descending Washington Center
Fri 10:54:41 PM 35.6300 -79.1761 57° Northeast 307 353 9,600 -1,377 Descending Washington Center
Fri 10:55:21 PM 35.6642 -79.1233 51° Northeast 310 357 8,900 -1,065 Descending Washington Center
Fri 10:55:43 PM 35.6817 -79.0906 57° Northeast 307 353 8,500 -750 Descending Washington Center
Fri 10:56:25 PM 35.7064 -79.0500 53° Northeast 300 345 8,100 -500 Descending Washington Center
Fri 10:56:43 PM 35.7308 -79.0094 53° Northeast 281 323 8,000 -98 Descending Washington Center
Fri 10:57:26 PM 35.7606 -78.9819 37° Northeast 279 321 8,000  Level Washington Center
Fri 10:57:38 PM 35.7853 -78.9625 33° Northeast 271 312 8,000  Level Washington Center
Fri 10:58:27 PM 35.8375 -78.9222 32° Northeast 272 313 8,000  Level Washington Center
Fri 10:58:39 PM 35.8506 -78.9119 33° Northeast 275 316 8,000 -1,315 Level Washington Center
Fri 10:59:40 PM 35.9069 -78.8678 32° Northeast 219 252 6,400 -2,205 Descending Washington Center
Fri 11:00:36 PM 35.9486 -78.8214 42° Northeast 213 245 3,700 -2,230 Descending Washington Center
Fri 11:01:33 PM 35.9925 -78.7756 40° Northeast 192 221 2,200 -769 Descending Washington Center
Fri 11:02:33 PM 36.0094 -78.7269 67° East 213 245 2,200  Level Washington Center
Fri 11:03:36 PM 35.9661 -78.6972 151° Southeast 198 228 2,200 -341 Level Washington Center
Fri 11:04:36 PM 35.9350 -78.7272 218° Southwest 148 170 1,500 -634 Descending Washington Center
Fri 11:05:39 PM 35.9108 -78.7567 225° Southwest 128 147 900 -435 Descending Washington Center
Fri 11:06:40 PM 35.8819 -78.7911 224° Southwest 127 146 600 -295 Descending Washington Center
Fri 11:08:00 PM 35.8776 -78.7875 51° Northeast  Level Estimated

Login

Don't have an account? Register now (free) for customized features, flight alerts, and more!